sensor_id;sensor_type;location;lat;lon;timestamp;pressure;altitude;pressure_sealevel;temperature;humidity
26807;BME280;14380;49.910;6.792;2023-03-01T00:00:08;99867.19;;;-2.10;88.37
26807;BME280;14380;49.910;6.792;2023-03-01T00:02:35;99866.47;;;-1.98;88.62
26807;BME280;14380;49.910;6.792;2023-03-01T00:05:02;99863.03;;;-1.99;87.73
26807;BME280;14380;49.910;6.792;2023-03-01T00:07:29;99870.66;;;-2.10;88.40
26807;BME280;14380;49.910;6.792;2023-03-01T00:09:56;99868.03;;;-2.13;88.25
26807;BME280;14380;49.910;6.792;2023-03-01T00:12:24;99867.94;;;-2.19;88.47
26807;BME280;14380;49.910;6.792;2023-03-01T00:14:50;99870.47;;;-2.23;88.78
26807;BME280;14380;49.910;6.792;2023-03-01T00:17:17;99875.53;;;-2.30;89.00
26807;BME280;14380;49.910;6.792;2023-03-01T00:19:44;99863.66;;;-2.15;88.20
26807;BME280;14380;49.910;6.792;2023-03-01T00:22:11;99855.94;;;-2.14;88.88
26807;BME280;14380;49.910;6.792;2023-03-01T00:24:37;99865.44;;;-2.13;88.73
26807;BME280;14380;49.910;6.792;2023-03-01T00:27:04;99869.28;;;-2.43;91.47
26807;BME280;14380;49.910;6.792;2023-03-01T00:29:32;99867.38;;;-1.99;89.55
26807;BME280;14380;49.910;6.792;2023-03-01T00:31:59;99861.31;;;-2.00;89.17
26807;BME280;14380;49.910;6.792;2023-03-01T00:34:26;99869.13;;;-1.95;88.99
26807;BME280;14380;49.910;6.792;2023-03-01T00:36:52;99868.16;;;-2.03;88.32
26807;BME280;14380;49.910;6.792;2023-03-01T00:39:19;99866.44;;;-2.03;88.39
26807;BME280;14380;49.910;6.792;2023-03-01T00:41:46;99868.69;;;-2.26;89.82
26807;BME280;14380;49.910;6.792;2023-03-01T00:44:13;99868.88;;;-2.12;88.51
26807;BME280;14380;49.910;6.792;2023-03-01T00:46:41;99870.63;;;-2.13;89.86
26807;BME280;14380;49.910;6.792;2023-03-01T00:49:07;99865.44;;;-2.13;88.56
26807;BME280;14380;49.910;6.792;2023-03-01T00:51:34;99860.38;;;-2.05;89.13
26807;BME280;14380;49.910;6.792;2023-03-01T00:54:02;99861.47;;;-1.86;88.08
26807;BME280;14380;49.910;6.792;2023-03-01T00:56:30;99866.56;;;-1.92;88.07
26807;BME280;14380;49.910;6.792;2023-03-01T00:58:57;99864.78;;;-1.96;89.07
26807;BME280;14380;49.910;6.792;2023-03-01T01:01:25;99862.25;;;-1.93;88.66
26807;BME280;14380;49.910;6.792;2023-03-01T01:03:56;99861.31;;;-2.00;88.61
26807;BME280;14380;49.910;6.792;2023-03-01T01:06:25;99867.50;;;-1.87;88.60
26807;BME280;14380;49.910;6.792;2023-03-01T01:08:53;99864.69;;;-2.04;88.17
26807;BME280;14380;49.910;6.792;2023-03-01T01:11:22;99857.72;;;-2.10;89.14
26807;BME280;14380;49.910;6.792;2023-03-01T01:13:50;99857.50;;;-2.25;88.30
26807;BME280;14380;49.910;6.792;2023-03-01T01:16:20;99843.81;;;-2.18;91.07
26807;BME280;14380;49.910;6.792;2023-03-01T01:18:47;99837.69;;;-2.25;89.77
26807;BME280;14380;49.910;6.792;2023-03-01T01:21:19;99833.69;;;-2.02;90.29
26807;BME280;14380;49.910;6.792;2023-03-01T01:23:47;99830.97;;;-2.10;90.57
26807;BME280;14380;49.910;6.792;2023-03-01T01:26:16;99825.69;;;-2.18;89.61
26807;BME280;14380;49.910;6.792;2023-03-01T01:28:43;99824.72;;;-2.26;90.93
26807;BME280;14380;49.910;6.792;2023-03-01T01:31:10;99821.41;;;-2.14;90.65
26807;BME280;14380;49.910;6.792;2023-03-01T01:33:37;99828.06;;;-2.35;90.18
26807;BME280;14380;49.910;6.792;2023-03-01T01:36:05;99821.19;;;-2.31;90.35
26807;BME280;14380;49.910;6.792;2023-03-01T01:38:34;99819.91;;;-2.00;89.76
26807;BME280;14380;49.910;6.792;2023-03-01T01:41:01;99816.47;;;-1.99;90.30
26807;BME280;14380;49.910;6.792;2023-03-01T01:43:30;99816.78;;;-2.39;93.05
26807;BME280;14380;49.910;6.792;2023-03-01T01:45:58;99812.00;;;-2.11;90.76
26807;BME280;14380;49.910;6.792;2023-03-01T01:48:31;99811.03;;;-2.17;93.06
26807;BME280;14380;49.910;6.792;2023-03-01T01:51:07;99803.88;;;-2.35;92.42
26807;BME280;14380;49.910;6.792;2023-03-01T01:53:38;99803.13;;;-2.30;92.41
26807;BME280;14380;49.910;6.792;2023-03-01T01:56:07;99796.91;;;-2.41;92.74
26807;BME280;14380;49.910;6.792;2023-03-01T01:58:35;99804.28;;;-2.67;94.17
26807;BME280;14380;49.910;6.792;2023-03-01T02:01:04;99783.28;;;-2.31;91.43
26807;BME280;14380;49.910;6.792;2023-03-01T02:03:32;99778.91;;;-2.35;92.14
26807;BME280;14380;49.910;6.792;2023-03-01T02:06:04;99775.28;;;-2.46;92.46
26807;BME280;14380;49.910;6.792;2023-03-01T02:08:36;99776.13;;;-2.49;93.11
26807;BME280;14380;49.910;6.792;2023-03-01T02:11:05;99772.09;;;-2.28;92.21
26807;BME280;14380;49.910;6.792;2023-03-01T02:13:33;99774.22;;;-2.62;95.84
26807;BME280;14380;49.910;6.792;2023-03-01T02:16:02;99772.47;;;-2.63;94.15
26807;BME280;14380;49.910;6.792;2023-03-01T02:18:30;99780.56;;;-2.39;93.64
26807;BME280;14380;49.910;6.792;2023-03-01T02:21:10;99776.00;;;-2.58;93.46
26807;BME280;14380;49.910;6.792;2023-03-01T02:23:39;99777.34;;;-2.82;95.93
26807;BME280;14380;49.910;6.792;2023-03-01T02:26:14;99769.97;;;-2.57;95.86
26807;BME280;14380;49.910;6.792;2023-03-01T02:28:44;99774.44;;;-2.47;93.29
26807;BME280;14380;49.910;6.792;2023-03-01T02:31:15;99772.22;;;-2.17;92.74
26807;BME280;14380;49.910;6.792;2023-03-01T02:34:00;99772.13;;;-2.25;94.85
26807;BME280;14380;49.910;6.792;2023-03-01T02:36:32;99767.91;;;-2.18;92.52
26807;BME280;14380;49.910;6.792;2023-03-01T02:39:03;99759.06;;;-2.34;93.67
26807;BME280;14380;49.910;6.792;2023-03-01T02:41:34;99762.50;;;-2.35;93.74
26807;BME280;14380;49.910;6.792;2023-03-01T02:44:03;99762.47;;;-2.39;94.84
26807;BME280;14380;49.910;6.792;2023-03-01T02:46:31;99763.31;;;-2.40;93.26
26807;BME280;14380;49.910;6.792;2023-03-01T02:48:59;99750.50;;;-2.30;93.90
26807;BME280;14380;49.910;6.792;2023-03-01T02:51:50;99757.53;;;-2.20;93.09
26807;BME280;14380;49.910;6.792;2023-03-01T02:54:25;99754.09;;;-2.19;93.93
26807;BME280;14380;49.910;6.792;2023-03-01T02:56:55;99748.00;;;-2.26;94.47
26807;BME280;14380;49.910;6.792;2023-03-01T02:59:27;99742.34;;;-1.93;92.17
26807;BME280;14380;49.910;6.792;2023-03-01T03:01:55;99751.91;;;-1.85;92.85
26807;BME280;14380;49.910;6.792;2023-03-01T03:04:22;99750.75;;;-2.10;93.42
26807;BME280;14380;49.910;6.792;2023-03-01T03:06:50;99744.03;;;-1.94;93.26
26807;BME280;14380;49.910;6.792;2023-03-01T03:09:17;99737.22;;;-1.87;92.02
26807;BME280;14380;49.910;6.792;2023-03-01T03:11:44;99734.69;;;-1.83;92.24
26807;BME280;14380;49.910;6.792;2023-03-01T03:14:14;99727.00;;;-1.75;92.80
26807;BME280;14380;49.910;6.792;2023-03-01T03:16:44;99729.72;;;-1.64;91.87
26807;BME280;14380;49.910;6.792;2023-03-01T03:19:12;99732.16;;;-1.76;93.13
26807;BME280;14380;49.910;6.792;2023-03-01T03:21:39;99727.91;;;-1.71;91.46
26807;BME280;14380;49.910;6.792;2023-03-01T03:24:06;99728.09;;;-1.51;90.65
26807;BME280;14380;49.910;6.792;2023-03-01T03:26:32;99724.59;;;-1.56;90.83
26807;BME280;14380;49.910;6.792;2023-03-01T03:28:59;99726.25;;;-1.65;92.70
26807;BME280;14380;49.910;6.792;2023-03-01T03:31:26;99709.94;;;-1.53;91.63
26807;BME280;14380;49.910;6.792;2023-03-01T03:33:55;99713.47;;;-1.44;91.36
26807;BME280;14380;49.910;6.792;2023-03-01T03:36:23;99710.13;;;-1.36;89.77
26807;BME280;14380;49.910;6.792;2023-03-01T03:38:50;99710.16;;;-1.29;90.51
26807;BME280;14380;49.910;6.792;2023-03-01T03:41:17;99712.78;;;-1.25;90.12
26807;BME280;14380;49.910;6.792;2023-03-01T03:43:44;99700.66;;;-1.27;90.90
26807;BME280;14380;49.910;6.792;2023-03-01T03:46:11;99699.69;;;-1.42;91.28
26807;BME280;14380;49.910;6.792;2023-03-01T03:48:39;99691.19;;;-1.25;89.83
26807;BME280;14380;49.910;6.792;2023-03-01T03:51:10;99693.84;;;-1.21;89.00
26807;BME280;14380;49.910;6.792;2023-03-01T03:53:36;99686.03;;;-1.24;89.02
26807;BME280;14380;49.910;6.792;2023-03-01T03:56:04;99679.91;;;-1.33;89.30
26807;BME280;14380;49.910;6.792;2023-03-01T03:58:30;99678.13;;;-1.41;89.19
26807;BME280;14380;49.910;6.792;2023-03-01T04:00:57;99683.25;;;-1.45;90.65
26807;BME280;14380;49.910;6.792;2023-03-01T04:03:25;99682.44;;;-1.38;89.64
26807;BME280;14380;49.910;6.792;2023-03-01T04:05:53;99683.13;;;-1.59;90.39
26807;BME280;14380;49.910;6.792;2023-03-01T04:08:22;99691.00;;;-1.48;91.46
26807;BME280;14380;49.910;6.792;2023-03-01T04:10:51;99688.47;;;-1.42;91.42
26807;BME280;14380;49.910;6.792;2023-03-01T04:13:19;99687.75;;;-1.21;90.71
26807;BME280;14380;49.910;6.792;2023-03-01T04:15:46;99685.19;;;-1.20;90.36
26807;BME280;14380;49.910;6.792;2023-03-01T04:18:15;99684.38;;;-1.15;89.59
26807;BME280;14380;49.910;6.792;2023-03-01T04:20:43;99680.78;;;-1.28;90.28
26807;BME280;14380;49.910;6.792;2023-03-01T04:23:11;99681.66;;;-1.29;90.87
26807;BME280;14380;49.910;6.792;2023-03-01T04:25:45;99687.75;;;-1.23;91.47
26807;BME280;14380;49.910;6.792;2023-03-01T04:28:15;99678.94;;;-1.46;91.94
26807;BME280;14380;49.910;6.792;2023-03-01T04:30:42;99677.34;;;-1.29;91.48
26807;BME280;14380;49.910;6.792;2023-03-01T04:33:10;99682.69;;;-1.09;90.33
26807;BME280;14380;49.910;6.792;2023-03-01T04:35:37;99680.81;;;-1.27;91.10
26807;BME280;14380;49.910;6.792;2023-03-01T04:38:04;99671.34;;;-1.25;90.25
26807;BME280;14380;49.910;6.792;2023-03-01T04:40:31;99668.59;;;-1.43;90.17
26807;BME280;14380;49.910;6.792;2023-03-01T04:43:00;99671.25;;;-1.37;90.12
26807;BME280;14380;49.910;6.792;2023-03-01T04:45:27;99664.25;;;-1.49;90.39
26807;BME280;14380;49.910;6.792;2023-03-01T04:47:54;99672.88;;;-1.50;91.14
26807;BME280;14380;49.910;6.792;2023-03-01T04:50:23;99678.84;;;-1.59;92.96
26807;BME280;14380;49.910;6.792;2023-03-01T04:52:51;99670.13;;;-1.67;93.46
26807;BME280;14380;49.910;6.792;2023-03-01T04:55:18;99670.97;;;-1.67;92.78
26807;BME280;14380;49.910;6.792;2023-03-01T04:57:45;99666.69;;;-1.66;93.70
26807;BME280;14380;49.910;6.792;2023-03-01T05:00:14;99666.56;;;-1.78;93.36
26807;BME280;14380;49.910;6.792;2023-03-01T05:02:48;99672.75;;;-1.62;93.03
26807;BME280;14380;49.910;6.792;2023-03-01T05:05:23;99674.41;;;-1.72;94.46
26807;BME280;14380;49.910;6.792;2023-03-01T05:07:55;99671.69;;;-1.86;95.00
26807;BME280;14380;49.910;6.792;2023-03-01T05:10:23;99675.38;;;-1.61;94.63
26807;BME280;14380;49.910;6.792;2023-03-01T05:12:54;99669.38;;;-1.54;94.32
26807;BME280;14380;49.910;6.792;2023-03-01T05:15:24;99663.44;;;-1.40;93.45
26807;BME280;14380;49.910;6.792;2023-03-01T05:17:52;99665.25;;;-1.28;92.71
26807;BME280;14380;49.910;6.792;2023-03-01T05:20:19;99663.50;;;-1.36;92.69
26807;BME280;14380;49.910;6.792;2023-03-01T05:22:49;99663.41;;;-1.43;92.48
26807;BME280;14380;49.910;6.792;2023-03-01T05:25:16;99667.66;;;-1.53;92.38
26807;BME280;14380;49.910;6.792;2023-03-01T05:27:43;99671.06;;;-1.59;92.70
26807;BME280;14380;49.910;6.792;2023-03-01T05:30:10;99670.00;;;-1.81;94.21
26807;BME280;14380;49.910;6.792;2023-03-01T05:32:43;99666.75;;;-1.60;93.62
26807;BME280;14380;49.910;6.792;2023-03-01T05:35:12;99664.25;;;-1.47;92.45
26807;BME280;14380;49.910;6.792;2023-03-01T05:37:40;99665.75;;;-1.73;93.37
26807;BME280;14380;49.910;6.792;2023-03-01T05:40:10;99665.72;;;-1.76;93.66
26807;BME280;14380;49.910;6.792;2023-03-01T05:42:43;99667.50;;;-1.70;93.31
26807;BME280;14380;49.910;6.792;2023-03-01T05:45:11;99660.69;;;-1.62;92.81
26807;BME280;14380;49.910;6.792;2023-03-01T05:47:39;99654.50;;;-1.75;92.97
26807;BME280;14380;49.910;6.792;2023-03-01T05:50:12;99662.34;;;-1.66;93.89
26807;BME280;14380;49.910;6.792;2023-03-01T05:52:39;99658.97;;;-1.60;92.08
26807;BME280;14380;49.910;6.792;2023-03-01T05:55:06;99655.47;;;-1.63;91.53
26807;BME280;14380;49.910;6.792;2023-03-01T05:57:33;99657.25;;;-1.61;93.82
26807;BME280;14380;49.910;6.792;2023-03-01T06:00:00;99657.25;;;-1.59;93.13
26807;BME280;14380;49.910;6.792;2023-03-01T06:02:27;99653.72;;;-1.68;91.78
26807;BME280;14380;49.910;6.792;2023-03-01T06:04:54;99657.25;;;-1.61;91.96
26807;BME280;14380;49.910;6.792;2023-03-01T06:07:24;99654.53;;;-1.72;93.01
26807;BME280;14380;49.910;6.792;2023-03-01T06:09:51;99645.16;;;-1.60;93.15
26807;BME280;14380;49.910;6.792;2023-03-01T06:12:18;99658.06;;;-1.63;92.62
26807;BME280;14380;49.910;6.792;2023-03-01T06:14:45;99662.34;;;-1.69;91.83
26807;BME280;14380;49.910;6.792;2023-03-01T06:17:12;99659.72;;;-1.73;92.45
26807;BME280;14380;49.910;6.792;2023-03-01T06:19:39;99662.31;;;-1.72;93.32
26807;BME280;14380;49.910;6.792;2023-03-01T06:22:06;99664.97;;;-1.64;93.16
26807;BME280;14380;49.910;6.792;2023-03-01T06:24:35;99667.53;;;-1.66;94.16
26807;BME280;14380;49.910;6.792;2023-03-01T06:27:01;99666.00;;;-1.45;92.37
26807;BME280;14380;49.910;6.792;2023-03-01T06:29:28;99673.75;;;-1.48;91.59
26807;BME280;14380;49.910;6.792;2023-03-01T06:31:55;99677.94;;;-1.64;91.98
26807;BME280;14380;49.910;6.792;2023-03-01T06:34:22;99683.16;;;-1.56;91.32
26807;BME280;14380;49.910;6.792;2023-03-01T06:36:48;99675.44;;;-1.52;91.55
26807;BME280;14380;49.910;6.792;2023-03-01T06:39:15;99689.06;;;-1.71;92.32
26807;BME280;14380;49.910;6.792;2023-03-01T06:41:44;99682.19;;;-1.69;91.36
26807;BME280;14380;49.910;6.792;2023-03-01T06:44:11;99682.09;;;-1.80;92.30
26807;BME280;14380;49.910;6.792;2023-03-01T06:46:38;99678.59;;;-1.84;93.38
26807;BME280;14380;49.910;6.792;2023-03-01T06:49:05;99683.69;;;-1.91;94.42
26807;BME280;14380;49.910;6.792;2023-03-01T06:51:35;99674.34;;;-1.78;93.31
26807;BME280;14380;49.910;6.792;2023-03-01T06:54:02;99679.31;;;-1.97;93.91
26807;BME280;14380;49.910;6.792;2023-03-01T06:56:29;99675.97;;;-1.87;92.32
26807;BME280;14380;49.910;6.792;2023-03-01T06:58:57;99665.72;;;-1.79;92.95
26807;BME280;14380;49.910;6.792;2023-03-01T07:01:24;99663.03;;;-1.88;92.70
26807;BME280;14380;49.910;6.792;2023-03-01T07:03:51;99666.66;;;-1.68;92.45
26807;BME280;14380;49.910;6.792;2023-03-01T07:06:18;99654.31;;;-1.95;94.62
26807;BME280;14380;49.910;6.792;2023-03-01T07:08:45;99664.06;;;-1.68;94.13
26807;BME280;14380;49.910;6.792;2023-03-01T07:11:11;99649.53;;;-1.53;93.73
26807;BME280;14380;49.910;6.792;2023-03-01T07:13:38;99648.66;;;-1.51;92.94
26807;BME280;14380;49.910;6.792;2023-03-01T07:16:07;99649.59;;;-1.47;93.49
26807;BME280;14380;49.910;6.792;2023-03-01T07:18:34;99644.59;;;-1.21;92.79
26807;BME280;14380;49.910;6.792;2023-03-01T07:21:04;99646.31;;;-1.23;92.42
26807;BME280;14380;49.910;6.792;2023-03-01T07:23:31;99647.16;;;-1.22;92.71
26807;BME280;14380;49.910;6.792;2023-03-01T07:25:57;99648.84;;;-1.27;92.69
26807;BME280;14380;49.910;6.792;2023-03-01T07:28:25;99642.16;;;-0.96;91.19
26807;BME280;14380;49.910;6.792;2023-03-01T07:30:53;99642.19;;;-0.90;91.11
26807;BME280;14380;49.910;6.792;2023-03-01T07:33:21;99625.75;;;-0.95;91.31
26807;BME280;14380;49.910;6.792;2023-03-01T07:35:48;99634.41;;;-0.91;91.22
26807;BME280;14380;49.910;6.792;2023-03-01T07:38:15;99637.78;;;-1.03;91.78
26807;BME280;14380;49.910;6.792;2023-03-01T07:40:41;99631.91;;;-0.77;91.37
26807;BME280;14380;49.910;6.792;2023-03-01T07:43:09;99631.84;;;-0.82;90.11
26807;BME280;14380;49.910;6.792;2023-03-01T07:45:35;99641.31;;;-0.87;90.32
26807;BME280;14380;49.910;6.792;2023-03-01T07:48:02;99640.63;;;-0.56;90.20
26807;BME280;14380;49.910;6.792;2023-03-01T07:50:31;99633.78;;;-0.39;89.05
26807;BME280;14380;49.910;6.792;2023-03-01T07:52:57;99631.16;;;-0.47;89.17
26807;BME280;14380;49.910;6.792;2023-03-01T07:55:24;99635.53;;;-0.32;88.81
26807;BME280;14380;49.910;6.792;2023-03-01T07:57:51;99627.66;;;-0.58;89.71
26807;BME280;14380;49.910;6.792;2023-03-01T08:00:18;99633.69;;;-0.57;90.55
26807;BME280;14380;49.910;6.792;2023-03-01T08:02:45;99633.72;;;-0.53;90.27
26807;BME280;14380;49.910;6.792;2023-03-01T08:05:12;99626.75;;;-0.68;89.98
26807;BME280;14380;49.910;6.792;2023-03-01T08:07:40;99622.44;;;-0.63;90.57
26807;BME280;14380;49.910;6.792;2023-03-01T08:10:08;99626.84;;;-0.41;89.70
26807;BME280;14380;49.910;6.792;2023-03-01T08:12:35;99628.53;;;-0.54;89.85
26807;BME280;14380;49.910;6.792;2023-03-01T08:15:02;99621.66;;;-0.35;89.15
26807;BME280;14380;49.910;6.792;2023-03-01T08:17:29;99619.97;;;-0.24;88.55
26807;BME280;14380;49.910;6.792;2023-03-01T08:19:56;99612.19;;;-0.27;89.77
26807;BME280;14380;49.910;6.792;2023-03-01T08:22:22;99609.53;;;-0.49;88.40
26807;BME280;14380;49.910;6.792;2023-03-01T08:24:50;99603.50;;;-0.40;89.04
26807;BME280;14380;49.910;6.792;2023-03-01T08:27:17;99614.81;;;-0.18;88.35
26807;BME280;14380;49.910;6.792;2023-03-01T08:29:44;99602.69;;;-0.11;87.39
26807;BME280;14380;49.910;6.792;2023-03-01T08:32:12;99620.91;;;0.05;87.14
26807;BME280;14380;49.910;6.792;2023-03-01T08:34:39;99615.72;;;0.00;87.37
26807;BME280;14380;49.910;6.792;2023-03-01T08:37:06;99614.00;;;0.07;86.42
26807;BME280;14380;49.910;6.792;2023-03-01T08:39:33;99614.00;;;-0.01;86.96
26807;BME280;14380;49.910;6.792;2023-03-01T08:42:01;99622.63;;;0.03;86.52
26807;BME280;14380;49.910;6.792;2023-03-01T08:44:28;99621.78;;;0.04;85.94
26807;BME280;14380;49.910;6.792;2023-03-01T08:46:54;99614.88;;;0.49;85.05
26807;BME280;14380;49.910;6.792;2023-03-01T08:49:22;99620.94;;;0.40;85.11
26807;BME280;14380;49.910;6.792;2023-03-01T08:51:49;99610.53;;;0.26;84.56
26807;BME280;14380;49.910;6.792;2023-03-01T08:54:18;99613.13;;;0.45;85.04
26807;BME280;14380;49.910;6.792;2023-03-01T08:56:46;99605.34;;;0.51;84.64
26807;BME280;14380;49.910;6.792;2023-03-01T08:59:17;99608.81;;;0.38;84.10
26807;BME280;14380;49.910;6.792;2023-03-01T09:01:44;99601.88;;;0.43;84.05
26807;BME280;14380;49.910;6.792;2023-03-01T09:04:11;99586.28;;;0.48;83.82
26807;BME280;14380;49.910;6.792;2023-03-01T09:06:38;99590.63;;;0.42;83.51
26807;BME280;14380;49.910;6.792;2023-03-01T09:09:05;99585.41;;;0.46;83.74
26807;BME280;14380;49.910;6.792;2023-03-01T09:11:34;99583.69;;;0.65;83.27
26807;BME280;14380;49.910;6.792;2023-03-01T09:14:05;99580.19;;;0.69;83.43
26807;BME280;14380;49.910;6.792;2023-03-01T09:16:33;99575.84;;;0.80;82.30
26807;BME280;14380;49.910;6.792;2023-03-01T09:19:01;99574.06;;;0.99;82.09
26807;BME280;14380;49.910;6.792;2023-03-01T09:21:28;99567.97;;;1.07;81.56
26807;BME280;14380;49.910;6.792;2023-03-01T09:23:56;99571.53;;;0.74;81.72
26807;BME280;14380;49.910;6.792;2023-03-01T09:26:23;99568.00;;;0.97;81.50
26807;BME280;14380;49.910;6.792;2023-03-01T09:28:52;99572.31;;;1.08;81.09
26807;BME280;14380;49.910;6.792;2023-03-01T09:31:21;99574.06;;;0.99;80.73
26807;BME280;14380;49.910;6.792;2023-03-01T09:33:52;99562.75;;;1.13;79.88
26807;BME280;14380;49.910;6.792;2023-03-01T09:36:21;99561.81;;;1.28;80.41
26807;BME280;14380;49.910;6.792;2023-03-01T09:38:48;99562.66;;;1.34;79.97
26807;BME280;14380;49.910;6.792;2023-03-01T09:41:26;99557.44;;;1.42;78.45
26807;BME280;14380;49.910;6.792;2023-03-01T09:44:00;99553.97;;;1.40;77.46
26807;BME280;14380;49.910;6.792;2023-03-01T09:46:32;99550.38;;;1.61;77.72
26807;BME280;14380;49.910;6.792;2023-03-01T09:49:06;99545.06;;;1.75;77.26
26807;BME280;14380;49.910;6.792;2023-03-01T09:51:37;99544.09;;;1.92;76.73
26807;BME280;14380;49.910;6.792;2023-03-01T09:54:05;99545.72;;;2.05;75.78
26807;BME280;14380;49.910;6.792;2023-03-01T09:56:34;99546.19;;;2.51;75.48
26807;BME280;14380;49.910;6.792;2023-03-01T09:59:11;99547.09;;;2.47;72.75
26807;BME280;14380;49.910;6.792;2023-03-01T10:01:48;99543.41;;;2.73;74.28
26807;BME280;14380;49.910;6.792;2023-03-01T10:04:28;99540.91;;;2.60;73.75
26807;BME280;14380;49.910;6.792;2023-03-01T10:07:07;99534.88;;;2.55;72.80
26807;BME280;14380;49.910;6.792;2023-03-01T10:09:41;99539.69;;;2.92;72.52
26807;BME280;14380;49.910;6.792;2023-03-01T10:12:10;99539.06;;;2.70;71.71
26807;BME280;14380;49.910;6.792;2023-03-01T10:14:43;99530.75;;;3.15;72.38
26807;BME280;14380;49.910;6.792;2023-03-01T10:17:22;99524.72;;;3.10;72.31
26807;BME280;14380;49.910;6.792;2023-03-01T10:19:52;99532.63;;;3.01;72.32
26807;BME280;14380;49.910;6.792;2023-03-01T10:22:23;99516.66;;;3.29;70.99
26807;BME280;14380;49.910;6.792;2023-03-01T10:24:54;99516.34;;;3.52;72.07
26807;BME280;14380;49.910;6.792;2023-03-01T10:27:23;99521.72;;;3.39;70.99
26807;BME280;14380;49.910;6.792;2023-03-01T10:29:55;99523.13;;;3.64;70.35
26807;BME280;14380;49.910;6.792;2023-03-01T10:32:25;99519.28;;;3.29;70.50
26807;BME280;14380;49.910;6.792;2023-03-01T10:34:53;99514.31;;;3.69;69.43
26807;BME280;14380;49.910;6.792;2023-03-01T10:37:22;99513.28;;;3.83;70.27
26807;BME280;14380;49.910;6.792;2023-03-01T10:39:58;99511.84;;;3.60;69.58
26807;BME280;14380;49.910;6.792;2023-03-01T10:42:32;99511.72;;;3.71;70.03
26807;BME280;14380;49.910;6.792;2023-03-01T10:45:16;99511.00;;;3.60;70.62
26807;BME280;14380;49.910;6.792;2023-03-01T10:47:43;99518.50;;;3.83;70.71
26807;BME280;14380;49.910;6.792;2023-03-01T10:50:20;99519.03;;;3.46;69.81
26807;BME280;14380;49.910;6.792;2023-03-01T10:52:58;99517.88;;;3.67;70.08
26807;BME280;14380;49.910;6.792;2023-03-01T10:55:29;99508.38;;;3.60;70.19
26807;BME280;14380;49.910;6.792;2023-03-01T10:58:16;99502.81;;;3.81;70.29
26807;BME280;14380;49.910;6.792;2023-03-01T11:00:49;99501.84;;;3.90;69.34
26807;BME280;14380;49.910;6.792;2023-03-01T11:03:19;99491.91;;;4.12;69.45
26807;BME280;14380;49.910;6.792;2023-03-01T11:06:06;99491.00;;;4.13;69.18
26807;BME280;14380;49.910;6.792;2023-03-01T11:08:47;99492.19;;;4.45;69.61
26807;BME280;14380;49.910;6.792;2023-03-01T11:11:18;99478.13;;;4.01;68.81
26807;BME280;14380;49.910;6.792;2023-03-01T11:13:57;99470.22;;;4.54;68.82
26807;BME280;14380;49.910;6.792;2023-03-01T11:16:27;99468.34;;;5.05;68.47
26807;BME280;14380;49.910;6.792;2023-03-01T11:19:01;99461.16;;;4.72;68.09
26807;BME280;14380;49.910;6.792;2023-03-01T11:21:32;99461.84;;;4.81;67.73
26807;BME280;14380;49.910;6.792;2023-03-01T11:24:01;99459.19;;;4.84;67.69
26807;BME280;14380;49.910;6.792;2023-03-01T11:26:30;99452.88;;;4.93;67.13
26807;BME280;14380;49.910;6.792;2023-03-01T11:29:05;99454.47;;;5.01;67.47
26807;BME280;14380;49.910;6.792;2023-03-01T11:31:33;99448.94;;;5.15;66.85
26807;BME280;14380;49.910;6.792;2023-03-01T11:34:07;99440.50;;;5.40;65.73
26807;BME280;14380;49.910;6.792;2023-03-01T11:36:41;99437.13;;;5.36;66.38
26807;BME280;14380;49.910;6.792;2023-03-01T11:39:19;99433.59;;;5.38;66.20
26807;BME280;14380;49.910;6.792;2023-03-01T11:42:02;99422.38;;;5.69;65.71
26807;BME280;14380;49.910;6.792;2023-03-01T11:44:34;99422.91;;;5.83;65.18
26807;BME280;14380;49.910;6.792;2023-03-01T11:47:26;99414.81;;;4.79;65.31
26807;BME280;14380;49.910;6.792;2023-03-01T11:50:11;99422.25;;;5.37;65.69
26807;BME280;14380;49.910;6.792;2023-03-01T11:52:52;99416.03;;;5.03;65.42
26807;BME280;14380;49.910;6.792;2023-03-01T11:55:34;99413.34;;;5.46;65.91
26807;BME280;14380;49.910;6.792;2023-03-01T11:58:17;99413.88;;;5.21;66.27
26807;BME280;14380;49.910;6.792;2023-03-01T12:01:06;99400.41;;;5.00;65.49
26807;BME280;14380;49.910;6.792;2023-03-01T12:03:49;99392.94;;;5.21;65.15
26807;BME280;14380;49.910;6.792;2023-03-01T12:06:27;99406.72;;;5.29;65.19
26807;BME280;14380;49.910;6.792;2023-03-01T12:09:09;99388.31;;;5.69;65.78
26807;BME280;14380;49.910;6.792;2023-03-01T12:11:53;99401.06;;;5.48;64.79
26807;BME280;14380;49.910;6.792;2023-03-01T12:14:37;99383.31;;;5.94;64.93
26807;BME280;14380;49.910;6.792;2023-03-01T12:17:22;99382.34;;;5.98;64.95
26807;BME280;14380;49.910;6.792;2023-03-01T12:20:06;99374.56;;;5.95;64.55
26807;BME280;14380;49.910;6.792;2023-03-01T12:22:48;99368.50;;;5.93;63.97
26807;BME280;14380;49.910;6.792;2023-03-01T12:25:26;99365.63;;;5.69;63.63
26807;BME280;14380;49.910;6.792;2023-03-01T12:28:17;99359.03;;;5.87;63.81
26807;BME280;14380;49.910;6.792;2023-03-01T12:30:58;99369.94;;;6.06;65.00
26807;BME280;14380;49.910;6.792;2023-03-01T12:33:34;99363.38;;;5.88;63.68
26807;BME280;14380;49.910;6.792;2023-03-01T12:36:41;99370.06;;;5.99;64.59
26807;BME280;14380;49.910;6.792;2023-03-01T12:39:27;99352.09;;;6.19;64.04
26807;BME280;14380;49.910;6.792;2023-03-01T12:42:05;99345.56;;;6.34;64.07
26807;BME280;14380;49.910;6.792;2023-03-01T12:44:52;99342.38;;;6.23;63.77
26807;BME280;14380;49.910;6.792;2023-03-01T12:47:26;99350.22;;;5.90;64.49
26807;BME280;14380;49.910;6.792;2023-03-01T12:50:01;99334.56;;;6.21;62.89
26807;BME280;14380;49.910;6.792;2023-03-01T12:52:35;99337.13;;;6.23;63.62
26807;BME280;14380;49.910;6.792;2023-03-01T12:55:14;99334.59;;;6.20;63.56
26807;BME280;14380;49.910;6.792;2023-03-01T12:57:51;99325.53;;;6.32;63.97
26807;BME280;14380;49.910;6.792;2023-03-01T13:00:27;99317.59;;;6.35;62.52
26807;BME280;14380;49.910;6.792;2023-03-01T13:02:59;99319.69;;;6.82;63.38
26807;BME280;14380;49.910;6.792;2023-03-01T13:05:36;99308.56;;;7.02;63.12
26807;BME280;14380;49.910;6.792;2023-03-01T13:08:11;99308.22;;;6.56;62.24
26807;BME280;14380;49.910;6.792;2023-03-01T13:10:46;99310.88;;;6.54;61.98
26807;BME280;14380;49.910;6.792;2023-03-01T13:13:21;99295.13;;;6.54;62.27
26807;BME280;14380;49.910;6.792;2023-03-01T13:15:48;99297.94;;;6.78;62.07
26807;BME280;14380;49.910;6.792;2023-03-01T13:18:40;99289.03;;;6.54;61.07
26807;BME280;14380;49.910;6.792;2023-03-01T13:21:07;99277.28;;;7.48;62.07